sensor_id;sensor_type;location;lat;lon;timestamp;noise_LAeq;noise_LA_min;noise_LA_max;noise_LA01;noise_LA95
61095;Laerm;20450;49.074;9.158;2023-11-22T00:00:47;43.34;40.80;49.96;;
61095;Laerm;20450;49.074;9.158;2023-11-22T00:03:15;43.18;40.43;51.92;;
61095;Laerm;20450;49.074;9.158;2023-11-22T00:05:46;43.32;41.30;59.11;;
61095;Laerm;20450;49.074;9.158;2023-11-22T00:08:13;43.28;40.43;58.42;;
61095;Laerm;20450;49.074;9.158;2023-11-22T00:10:45;43.21;40.98;49.60;;
61095;Laerm;20450;49.074;9.158;2023-11-22T00:13:14;43.19;39.58;58.58;;
61095;Laerm;20450;49.074;9.158;2023-11-22T00:15:42;43.16;41.06;55.34;;
61095;Laerm;20450;49.074;9.158;2023-11-22T00:18:09;43.25;40.89;57.14;;
61095;Laerm;20450;49.074;9.158;2023-11-22T00:20:37;43.43;40.71;58.70;;
61095;Laerm;20450;49.074;9.158;2023-11-22T00:23:05;43.25;40.71;48.48;;
61095;Laerm;20450;49.074;9.158;2023-11-22T00:25:36;43.23;39.81;51.67;;
61095;Laerm;20450;49.074;9.158;2023-11-22T00:28:06;43.12;40.98;45.23;;
61095;Laerm;20450;49.074;9.158;2023-11-22T00:30:35;43.39;41.48;55.86;;
61095;Laerm;20450;49.074;9.158;2023-11-22T00:33:04;43.32;40.89;48.64;;
61095;Laerm;20450;49.074;9.158;2023-11-22T00:35:31;43.27;41.46;54.29;;
61095;Laerm;20450;49.074;9.158;2023-11-22T00:38:00;43.06;41.14;44.69;;
61095;Laerm;20450;49.074;9.158;2023-11-22T00:40:27;43.08;41.06;45.20;;
61095;Laerm;20450;49.074;9.158;2023-11-22T00:42:54;43.05;40.98;44.73;;
61095;Laerm;20450;49.074;9.158;2023-11-22T00:45:23;43.02;40.62;49.10;;
61095;Laerm;20450;49.074;9.158;2023-11-22T00:47:52;43.13;40.89;45.04;;
61095;Laerm;20450;49.074;9.158;2023-11-22T00:50:19;43.17;41.14;44.94;;
61095;Laerm;20450;49.074;9.158;2023-11-22T00:52:54;43.12;40.80;51.56;;
61095;Laerm;20450;49.074;9.158;2023-11-22T00:55:22;43.00;40.89;45.66;;
61095;Laerm;20450;49.074;9.158;2023-11-22T00:57:49;43.11;40.43;49.55;;
61095;Laerm;20450;49.074;9.158;2023-11-22T01:00:17;43.41;40.45;52.22;;
61095;Laerm;20450;49.074;9.158;2023-11-22T01:02:47;44.51;40.80;63.57;;
61095;Laerm;20450;49.074;9.158;2023-11-22T01:05:16;43.17;40.62;51.15;;
61095;Laerm;20450;49.074;9.158;2023-11-22T01:07:43;44.97;40.62;70.07;;
61095;Laerm;20450;49.074;9.158;2023-11-22T01:10:10;43.27;40.71;50.12;;
61095;Laerm;20450;49.074;9.158;2023-11-22T01:12:38;42.97;40.03;52.56;;
61095;Laerm;20450;49.074;9.158;2023-11-22T01:15:07;43.12;40.89;45.33;;
61095;Laerm;20450;49.074;9.158;2023-11-22T01:17:35;43.20;40.53;50.98;;
61095;Laerm;20450;49.074;9.158;2023-11-22T01:20:05;42.95;40.89;47.42;;
61095;Laerm;20450;49.074;9.158;2023-11-22T01:22:34;43.41;40.53;55.61;;
61095;Laerm;20450;49.074;9.158;2023-11-22T01:25:02;43.91;40.80;60.72;;
61095;Laerm;20450;49.074;9.158;2023-11-22T01:27:29;43.53;41.14;47.50;;
61095;Laerm;20450;49.074;9.158;2023-11-22T01:29:59;43.24;40.53;45.39;;
61095;Laerm;20450;49.074;9.158;2023-11-22T01:32:27;43.16;40.98;45.97;;
61095;Laerm;20450;49.074;9.158;2023-11-22T01:34:56;43.06;40.71;45.33;;
61095;Laerm;20450;49.074;9.158;2023-11-22T01:37:23;43.28;41.46;46.40;;
61095;Laerm;20450;49.074;9.158;2023-11-22T01:39:55;43.00;41.06;44.80;;
61095;Laerm;20450;49.074;9.158;2023-11-22T01:42:23;43.16;41.38;45.01;;
61095;Laerm;20450;49.074;9.158;2023-11-22T01:44:52;43.40;41.38;55.03;;
61095;Laerm;20450;49.074;9.158;2023-11-22T01:47:20;43.20;41.38;44.80;;
61095;Laerm;20450;49.074;9.158;2023-11-22T01:49:49;43.17;40.98;47.28;;
61095;Laerm;20450;49.074;9.158;2023-11-22T01:52:16;43.31;40.62;51.22;;
61095;Laerm;20450;49.074;9.158;2023-11-22T01:54:44;43.16;41.06;46.07;;
61095;Laerm;20450;49.074;9.158;2023-11-22T01:57:14;43.13;40.53;47.40;;
61095;Laerm;20450;49.074;9.158;2023-11-22T01:59:45;43.86;40.80;65.59;;
61095;Laerm;20450;49.074;9.158;2023-11-22T02:02:13;43.22;40.62;48.52;;
61095;Laerm;20450;49.074;9.158;2023-11-22T02:04:42;43.24;40.80;47.68;;
61095;Laerm;20450;49.074;9.158;2023-11-22T02:07:09;43.17;40.43;52.49;;
61095;Laerm;20450;49.074;9.158;2023-11-22T02:09:37;43.96;41.06;60.95;;
61095;Laerm;20450;49.074;9.158;2023-11-22T02:12:07;43.27;40.98;54.23;;
61095;Laerm;20450;49.074;9.158;2023-11-22T02:14:38;43.41;39.92;53.34;;
61095;Laerm;20450;49.074;9.158;2023-11-22T02:17:08;43.39;40.23;54.34;;
61095;Laerm;20450;49.074;9.158;2023-11-22T02:19:35;43.40;40.53;52.69;;
61095;Laerm;20450;49.074;9.158;2023-11-22T02:22:05;43.15;40.80;44.65;;
61095;Laerm;20450;49.074;9.158;2023-11-22T02:24:33;43.28;40.71;46.35;;
61095;Laerm;20450;49.074;9.158;2023-11-22T02:27:02;43.40;41.46;46.35;;
61095;Laerm;20450;49.074;9.158;2023-11-22T02:29:30;43.29;40.98;56.47;;
61095;Laerm;20450;49.074;9.158;2023-11-22T02:31:58;43.26;40.53;47.08;;
61095;Laerm;20450;49.074;9.158;2023-11-22T02:34:28;43.08;41.22;45.36;;
61095;Laerm;20450;49.074;9.158;2023-11-22T02:36:55;43.16;40.98;46.03;;
61095;Laerm;20450;49.074;9.158;2023-11-22T02:39:46;43.09;41.14;44.43;;
61095;Laerm;20450;49.074;9.158;2023-11-22T02:42:21;43.24;41.38;45.14;;
61095;Laerm;20450;49.074;9.158;2023-11-22T02:44:49;43.25;40.98;45.23;;
61095;Laerm;20450;49.074;9.158;2023-11-22T02:47:18;43.08;40.98;44.95;;
61095;Laerm;20450;49.074;9.158;2023-11-22T02:49:45;43.16;41.14;46.38;;
61095;Laerm;20450;49.074;9.158;2023-11-22T02:52:12;43.36;40.89;53.42;;
61095;Laerm;20450;49.074;9.158;2023-11-22T02:54:43;43.31;40.80;44.94;;
61095;Laerm;20450;49.074;9.158;2023-11-22T02:57:11;43.45;40.71;55.72;;
61095;Laerm;20450;49.074;9.158;2023-11-22T02:59:41;43.52;40.80;59.59;;
61095;Laerm;20450;49.074;9.158;2023-11-22T03:02:09;43.29;40.43;47.98;;
61095;Laerm;20450;49.074;9.158;2023-11-22T03:04:38;43.43;40.89;49.84;;
61095;Laerm;20450;49.074;9.158;2023-11-22T03:07:06;43.16;40.71;49.41;;
61095;Laerm;20450;49.074;9.158;2023-11-22T03:09:34;43.22;40.98;48.32;;
61095;Laerm;20450;49.074;9.158;2023-11-22T03:12:06;43.07;40.98;44.58;;
61095;Laerm;20450;49.074;9.158;2023-11-22T03:14:36;43.15;41.22;51.61;;
61095;Laerm;20450;49.074;9.158;2023-11-22T03:17:05;43.20;40.89;47.83;;
61095;Laerm;20450;49.074;9.158;2023-11-22T03:19:35;43.24;41.46;57.17;;
61095;Laerm;20450;49.074;9.158;2023-11-22T03:22:05;43.27;41.38;44.87;;
61095;Laerm;20450;49.074;9.158;2023-11-22T03:24:35;43.19;41.22;44.73;;
61095;Laerm;20450;49.074;9.158;2023-11-22T03:27:07;43.26;40.80;45.48;;
61095;Laerm;20450;49.074;9.158;2023-11-22T03:29:34;43.31;41.53;45.20;;
61095;Laerm;20450;49.074;9.158;2023-11-22T03:32:18;43.17;41.14;44.62;;
61095;Laerm;20450;49.074;9.158;2023-11-22T03:34:46;43.09;41.22;44.58;;
61095;Laerm;20450;49.074;9.158;2023-11-22T03:37:13;43.24;40.98;50.31;;
61095;Laerm;20450;49.074;9.158;2023-11-22T03:39:42;43.13;41.30;44.51;;
61095;Laerm;20450;49.074;9.158;2023-11-22T03:42:10;43.17;41.46;44.45;;
61095;Laerm;20450;49.074;9.158;2023-11-22T03:44:40;43.27;41.61;45.54;;
61095;Laerm;20450;49.074;9.158;2023-11-22T03:47:10;43.19;41.46;44.80;;
61095;Laerm;20450;49.074;9.158;2023-11-22T03:49:38;43.06;40.98;44.54;;
61095;Laerm;20450;49.074;9.158;2023-11-22T03:52:05;43.09;41.46;44.47;;
61095;Laerm;20450;49.074;9.158;2023-11-22T03:54:34;42.95;40.98;44.35;;
61095;Laerm;20450;49.074;9.158;2023-11-22T03:57:03;43.21;41.30;44.87;;
61095;Laerm;20450;49.074;9.158;2023-11-22T03:59:34;43.18;41.38;44.97;;
61095;Laerm;20450;49.074;9.158;2023-11-22T04:02:04;43.28;41.30;44.76;;
61095;Laerm;20450;49.074;9.158;2023-11-22T04:04:33;43.27;41.30;44.83;;
61095;Laerm;20450;49.074;9.158;2023-11-22T04:07:21;43.25;41.22;44.65;;
61095;Laerm;20450;49.074;9.158;2023-11-22T04:10:16;43.40;41.61;47.90;;
61095;Laerm;20450;49.074;9.158;2023-11-22T04:12:45;43.46;41.30;59.81;;
61095;Laerm;20450;49.074;9.158;2023-11-22T04:15:14;43.27;41.61;47.20;;
61095;Laerm;20450;49.074;9.158;2023-11-22T04:17:43;43.26;41.68;44.90;;
61095;Laerm;20450;49.074;9.158;2023-11-22T04:20:11;43.22;41.30;45.75;;
61095;Laerm;20450;49.074;9.158;2023-11-22T04:22:45;43.27;41.53;45.39;;
61095;Laerm;20450;49.074;9.158;2023-11-22T04:25:12;43.29;41.22;44.90;;
61095;Laerm;20450;49.074;9.158;2023-11-22T04:27:40;43.23;41.38;44.65;;
61095;Laerm;20450;49.074;9.158;2023-11-22T04:30:09;43.27;41.30;44.73;;
61095;Laerm;20450;49.074;9.158;2023-11-22T04:32:40;43.43;41.61;45.04;;
61095;Laerm;20450;49.074;9.158;2023-11-22T04:35:11;43.35;41.82;45.42;;
61095;Laerm;20450;49.074;9.158;2023-11-22T04:37:40;43.38;41.75;45.48;;
61095;Laerm;20450;49.074;9.158;2023-11-22T04:40:13;43.34;41.61;45.01;;
61095;Laerm;20450;49.074;9.158;2023-11-22T04:42:44;43.33;41.68;45.14;;
61095;Laerm;20450;49.074;9.158;2023-11-22T04:45:11;43.39;41.75;44.69;;
61095;Laerm;20450;49.074;9.158;2023-11-22T04:47:40;43.35;41.53;46.65;;
61095;Laerm;20450;49.074;9.158;2023-11-22T04:50:10;43.31;41.61;44.90;;
61095;Laerm;20450;49.074;9.158;2023-11-22T04:52:37;43.37;41.61;45.27;;
61095;Laerm;20450;49.074;9.158;2023-11-22T04:55:07;43.08;41.30;44.90;;
61095;Laerm;20450;49.074;9.158;2023-11-22T04:57:35;43.33;41.89;46.80;;
61095;Laerm;20450;49.074;9.158;2023-11-22T05:00:10;43.33;41.68;56.74;;
61095;Laerm;20450;49.074;9.158;2023-11-22T05:02:40;43.31;41.68;45.27;;
61095;Laerm;20450;49.074;9.158;2023-11-22T05:05:09;43.34;41.75;45.77;;
61095;Laerm;20450;49.074;9.158;2023-11-22T05:07:36;43.60;41.96;45.57;;
61095;Laerm;20450;49.074;9.158;2023-11-22T05:10:09;43.43;41.75;44.69;;
61095;Laerm;20450;49.074;9.158;2023-11-22T05:12:36;43.38;41.82;45.04;;
61095;Laerm;20450;49.074;9.158;2023-11-22T05:15:06;43.33;41.81;45.11;;
61095;Laerm;20450;49.074;9.158;2023-11-22T05:17:34;43.55;41.61;45.91;;
61095;Laerm;20450;49.074;9.158;2023-11-22T05:20:05;43.56;41.68;47.20;;
61095;Laerm;20450;49.074;9.158;2023-11-22T05:22:32;43.62;41.75;49.56;;
61095;Laerm;20450;49.074;9.158;2023-11-22T05:25:00;43.72;41.96;53.66;;
61095;Laerm;20450;49.074;9.158;2023-11-22T05:27:26;43.53;41.68;50.66;;
61095;Laerm;20450;49.074;9.158;2023-11-22T05:29:54;43.47;41.53;47.77;;
61095;Laerm;20450;49.074;9.158;2023-11-22T05:32:22;43.70;41.75;54.93;;
61095;Laerm;20450;49.074;9.158;2023-11-22T05:34:49;43.37;41.38;47.48;;
61095;Laerm;20450;49.074;9.158;2023-11-22T05:37:21;43.64;41.96;49.28;;
61095;Laerm;20450;49.074;9.158;2023-11-22T05:39:50;44.22;41.30;62.58;;
61095;Laerm;20450;49.074;9.158;2023-11-22T05:42:19;43.42;41.06;56.45;;
61095;Laerm;20450;49.074;9.158;2023-11-22T05:44:47;43.40;41.22;49.82;;
61095;Laerm;20450;49.074;9.158;2023-11-22T05:47:14;43.23;41.22;47.02;;
61095;Laerm;20450;49.074;9.158;2023-11-22T05:49:45;43.57;40.98;51.21;;
61095;Laerm;20450;49.074;9.158;2023-11-22T05:52:13;43.47;41.53;46.87;;
61095;Laerm;20450;49.074;9.158;2023-11-22T05:54:44;43.31;40.23;55.85;;
61095;Laerm;20450;49.074;9.158;2023-11-22T05:57:12;43.37;41.06;56.01;;
61095;Laerm;20450;49.074;9.158;2023-11-22T05:59:40;43.38;41.30;47.77;;
61095;Laerm;20450;49.074;9.158;2023-11-22T06:02:08;48.22;41.30;74.89;;
61095;Laerm;20450;49.074;9.158;2023-11-22T06:04:35;43.84;41.41;48.88;;
61095;Laerm;20450;49.074;9.158;2023-11-22T06:07:09;43.47;41.06;57.08;;
61095;Laerm;20450;49.074;9.158;2023-11-22T06:09:36;43.67;40.89;53.84;;
61095;Laerm;20450;49.074;9.158;2023-11-22T06:12:07;43.44;40.23;46.55;;
61095;Laerm;20450;49.074;9.158;2023-11-22T06:14:34;43.75;40.89;61.87;;
61095;Laerm;20450;49.074;9.158;2023-11-22T06:17:01;43.78;41.46;48.42;;
61095;Laerm;20450;49.074;9.158;2023-11-22T06:19:29;43.82;41.75;49.08;;
61095;Laerm;20450;49.074;9.158;2023-11-22T06:21:56;46.65;41.82;78.02;;
61095;Laerm;20450;49.074;9.158;2023-11-22T06:24:25;43.62;41.30;48.13;;
61095;Laerm;20450;49.074;9.158;2023-11-22T06:26:52;43.61;41.38;58.16;;
61095;Laerm;20450;49.074;9.158;2023-11-22T06:29:21;45.38;41.38;55.13;;
61095;Laerm;20450;49.074;9.158;2023-11-22T06:31:50;46.49;41.75;61.99;;
61095;Laerm;20450;49.074;9.158;2023-11-22T06:34:18;43.88;41.75;50.55;;
61095;Laerm;20450;49.074;9.158;2023-11-22T06:36:46;43.80;41.89;52.21;;
61095;Laerm;20450;49.074;9.158;2023-11-22T06:39:14;43.76;41.61;47.46;;
61095;Laerm;20450;49.074;9.158;2023-11-22T06:41:43;43.99;41.22;52.05;;
61095;Laerm;20450;49.074;9.158;2023-11-22T06:44:10;43.65;41.96;54.08;;
61095;Laerm;20450;49.074;9.158;2023-11-22T06:46:42;43.68;41.68;54.67;;
61095;Laerm;20450;49.074;9.158;2023-11-22T06:49:11;43.81;41.06;52.42;;
61095;Laerm;20450;49.074;9.158;2023-11-22T06:51:44;43.59;41.38;48.43;;
61095;Laerm;20450;49.074;9.158;2023-11-22T06:54:14;43.92;41.88;48.37;;
61095;Laerm;20450;49.074;9.158;2023-11-22T06:56:43;44.04;41.82;52.34;;
61095;Laerm;20450;49.074;9.158;2023-11-22T06:59:10;44.01;41.30;54.86;;
61095;Laerm;20450;49.074;9.158;2023-11-22T07:01:37;44.02;41.89;56.76;;
61095;Laerm;20450;49.074;9.158;2023-11-22T07:04:06;43.73;41.30;49.03;;
61095;Laerm;20450;49.074;9.158;2023-11-22T07:06:34;43.83;41.61;58.41;;
61095;Laerm;20450;49.074;9.158;2023-11-22T07:09:02;43.62;41.38;54.85;;
61095;Laerm;20450;49.074;9.158;2023-11-22T07:11:33;43.87;41.38;52.39;;
61095;Laerm;20450;49.074;9.158;2023-11-22T07:14:01;45.05;42.09;66.63;;
61095;Laerm;20450;49.074;9.158;2023-11-22T07:16:28;43.78;41.22;52.42;;
61095;Laerm;20450;49.074;9.158;2023-11-22T07:18:56;43.95;41.30;52.67;;
61095;Laerm;20450;49.074;9.158;2023-11-22T07:21:26;43.94;41.89;50.27;;
61095;Laerm;20450;49.074;9.158;2023-11-22T07:23:55;43.97;41.55;61.38;;
61095;Laerm;20450;49.074;9.158;2023-11-22T07:26:23;43.87;41.68;48.55;;
61095;Laerm;20450;49.074;9.158;2023-11-22T07:28:50;43.68;41.68;52.04;;
61095;Laerm;20450;49.074;9.158;2023-11-22T07:31:18;45.10;41.46;63.50;;
61095;Laerm;20450;49.074;9.158;2023-11-22T07:33:47;44.17;41.46;59.90;;
61095;Laerm;20450;49.074;9.158;2023-11-22T07:36:14;44.13;41.33;56.77;;
61095;Laerm;20450;49.074;9.158;2023-11-22T07:38:43;44.05;41.53;48.90;;
61095;Laerm;20450;49.074;9.158;2023-11-22T07:41:12;44.31;41.81;58.68;;
61095;Laerm;20450;49.074;9.158;2023-11-22T07:43:42;44.14;41.82;51.08;;
61095;Laerm;20450;49.074;9.158;2023-11-22T07:46:11;44.04;41.53;53.50;;
61095;Laerm;20450;49.074;9.158;2023-11-22T07:48:39;44.05;41.82;52.04;;
61095;Laerm;20450;49.074;9.158;2023-11-22T07:51:07;44.10;42.03;50.67;;
61095;Laerm;20450;49.074;9.158;2023-11-22T07:53:35;44.19;42.09;57.76;;
61095;Laerm;20450;49.074;9.158;2023-11-22T07:56:04;44.00;42.03;48.58;;
61095;Laerm;20450;49.074;9.158;2023-11-22T07:58:32;44.19;42.29;49.06;;
61095;Laerm;20450;49.074;9.158;2023-11-22T08:00:59;44.33;41.46;62.03;;
61095;Laerm;20450;49.074;9.158;2023-11-22T08:03:26;44.28;42.22;49.30;;
61095;Laerm;20450;49.074;9.158;2023-11-22T08:05:54;44.08;42.29;51.62;;
61095;Laerm;20450;49.074;9.158;2023-11-22T08:08:23;44.46;42.16;54.49;;
61095;Laerm;20450;49.074;9.158;2023-11-22T08:10:51;44.12;42.03;60.18;;
61095;Laerm;20450;49.074;9.158;2023-11-22T08:13:20;43.96;42.29;47.40;;
61095;Laerm;20450;49.074;9.158;2023-11-22T08:15:47;44.24;41.96;53.06;;
61095;Laerm;20450;49.074;9.158;2023-11-22T08:18:14;43.94;42.22;47.02;;
61095;Laerm;20450;49.074;9.158;2023-11-22T08:20:42;44.10;42.29;47.84;;
61095;Laerm;20450;49.074;9.158;2023-11-22T08:23:09;44.14;42.16;50.08;;
61095;Laerm;20450;49.074;9.158;2023-11-22T08:25:38;43.83;42.09;53.74;;
61095;Laerm;20450;49.074;9.158;2023-11-22T08:28:06;43.98;41.81;47.83;;
61095;Laerm;20450;49.074;9.158;2023-11-22T08:30:35;44.04;41.89;53.32;;
61095;Laerm;20450;49.074;9.158;2023-11-22T08:33:02;44.15;42.41;46.30;;
61095;Laerm;20450;49.074;9.158;2023-11-22T08:35:29;44.04;42.09;52.70;;
61095;Laerm;20450;49.074;9.158;2023-11-22T08:37:58;44.46;42.35;55.56;;
61095;Laerm;20450;49.074;9.158;2023-11-22T08:40:25;44.12;42.03;55.92;;
61095;Laerm;20450;49.074;9.158;2023-11-22T08:42:53;44.27;42.22;55.58;;
61095;Laerm;20450;49.074;9.158;2023-11-22T08:45:20;44.33;42.03;50.87;;
61095;Laerm;20450;49.074;9.158;2023-11-22T08:47:49;44.64;41.53;57.80;;
61095;Laerm;20450;49.074;9.158;2023-11-22T08:50:16;44.31;42.03;54.16;;
61095;Laerm;20450;49.074;9.158;2023-11-22T08:52:44;44.39;42.09;56.39;;
61095;Laerm;20450;49.074;9.158;2023-11-22T08:55:12;44.52;42.41;61.88;;
61095;Laerm;20450;49.074;9.158;2023-11-22T08:57:39;44.25;42.35;49.38;;
61095;Laerm;20450;49.074;9.158;2023-11-22T09:00:07;44.28;42.16;49.65;;
61095;Laerm;20450;49.074;9.158;2023-11-22T09:02:34;44.12;42.03;59.08;;
61095;Laerm;20450;49.074;9.158;2023-11-22T09:05:04;44.01;42.22;52.74;;
61095;Laerm;20450;49.074;9.158;2023-11-22T09:07:31;44.59;41.68;53.46;;
61095;Laerm;20450;49.074;9.158;2023-11-22T09:10:00;43.99;42.41;50.50;;
61095;Laerm;20450;49.074;9.158;2023-11-22T09:12:27;43.86;41.75;46.48;;
61095;Laerm;20450;49.074;9.158;2023-11-22T09:14:55;43.99;42.29;47.61;;
61095;Laerm;20450;49.074;9.158;2023-11-22T09:17:24;43.87;42.06;49.49;;
61095;Laerm;20450;49.074;9.158;2023-11-22T09:19:51;44.40;42.29;50.54;;
61095;Laerm;20450;49.074;9.158;2023-11-22T09:22:20;44.00;41.38;47.50;;
61095;Laerm;20450;49.074;9.158;2023-11-22T09:24:47;44.01;42.09;45.66;;
61095;Laerm;20450;49.074;9.158;2023-11-22T09:27:15;44.35;42.35;50.79;;
61095;Laerm;20450;49.074;9.158;2023-11-22T09:29:42;44.10;41.14;47.06;;
61095;Laerm;20450;49.074;9.158;2023-11-22T09:32:09;44.28;41.89;49.70;;
61095;Laerm;20450;49.074;9.158;2023-11-22T09:34:36;43.87;42.03;47.04;;
61095;Laerm;20450;49.074;9.158;2023-11-22T09:37:03;44.47;42.22;47.65;;
61095;Laerm;20450;49.074;9.158;2023-11-22T09:39:33;44.16;42.16;49.62;;
61095;Laerm;20450;49.074;9.158;2023-11-22T09:42:00;44.31;42.29;48.70;;
61095;Laerm;20450;49.074;9.158;2023-11-22T09:44:28;44.25;42.03;54.71;;
61095;Laerm;20450;49.074;9.158;2023-11-22T09:46:56;44.14;42.22;49.21;;
61095;Laerm;20450;49.074;9.158;2023-11-22T09:49:25;44.06;42.41;48.64;;
61095;Laerm;20450;49.074;9.158;2023-11-22T09:52:01;44.03;42.09;53.38;;
61095;Laerm;20450;49.074;9.158;2023-11-22T09:54:30;44.29;42.16;48.73;;
61095;Laerm;20450;49.074;9.158;2023-11-22T09:57:01;44.08;41.89;51.13;;
61095;Laerm;20450;49.074;9.158;2023-11-22T09:59:31;44.04;41.96;52.02;;
61095;Laerm;20450;49.074;9.158;2023-11-22T10:01:58;44.35;41.82;50.88;;
61095;Laerm;20450;49.074;9.158;2023-11-22T10:04:26;44.31;42.41;46.84;;
61095;Laerm;20450;49.074;9.158;2023-11-22T10:06:55;44.22;41.82;55.47;;
61095;Laerm;20450;49.074;9.158;2023-11-22T10:09:22;44.55;42.09;51.61;;
61095;Laerm;20450;49.074;9.158;2023-11-22T10:11:50;44.14;42.22;51.93;;
61095;Laerm;20450;49.074;9.158;2023-11-22T10:14:24;44.25;42.65;55.22;;
61095;Laerm;20450;49.074;9.158;2023-11-22T10:17:00;44.27;42.59;52.80;;
61095;Laerm;20450;49.074;9.158;2023-11-22T10:19:31;44.07;42.41;47.36;;
61095;Laerm;20450;49.074;9.158;2023-11-22T10:22:07;44.15;42.16;55.42;;
61095;Laerm;20450;49.074;9.158;2023-11-22T10:24:35;44.01;42.03;46.80;;
61095;Laerm;20450;49.074;9.158;2023-11-22T10:27:04;43.96;42.09;45.99;;
61095;Laerm;20450;49.074;9.158;2023-11-22T10:29:32;44.04;42.09;45.51;;
61095;Laerm;20450;49.074;9.158;2023-11-22T10:32:00;44.08;42.03;46.33;;
61095;Laerm;20450;49.074;9.158;2023-11-22T10:34:27;44.05;41.89;48.25;;
61095;Laerm;20450;49.074;9.158;2023-11-22T10:36:55;44.43;42.47;49.43;;
61095;Laerm;20450;49.074;9.158;2023-11-22T10:39:23;44.51;42.59;48.36;;
61095;Laerm;20450;49.074;9.158;2023-11-22T10:41:50;44.09;42.29;47.55;;
61095;Laerm;20450;49.074;9.158;2023-11-22T10:44:20;44.31;42.41;54.69;;
61095;Laerm;20450;49.074;9.158;2023-11-22T10:46:48;53.95;42.76;69.10;;
61095;Laerm;20450;49.074;9.158;2023-11-22T10:49:16;44.39;42.53;50.54;;
61095;Laerm;20450;49.074;9.158;2023-11-22T10:51:51;44.03;42.22;47.48;;
61095;Laerm;20450;49.074;9.158;2023-11-22T10:54:20;44.05;42.09;48.52;;
61095;Laerm;20450;49.074;9.158;2023-11-22T10:56:55;43.85;42.35;45.63;;
61095;Laerm;20450;49.074;9.158;2023-11-22T10:59:28;44.05;42.35;46.28;;
61095;Laerm;20450;49.074;9.158;2023-11-22T11:02:01;43.98;42.47;48.20;;
61095;Laerm;20450;49.074;9.158;2023-11-22T11:04:44;44.10;42.47;51.21;;
61095;Laerm;20450;49.074;9.158;2023-11-22T11:07:21;44.16;42.76;46.78;;
61095;Laerm;20450;49.074;9.158;2023-11-22T11:09:50;44.14;42.16;53.48;;
61095;Laerm;20450;49.074;9.158;2023-11-22T11:12:19;43.98;42.16;45.83;;
61095;Laerm;20450;49.074;9.158;2023-11-22T11:14:48;44.38;41.96;48.58;;
61095;Laerm;20450;49.074;9.158;2023-11-22T11:17:21;44.01;42.47;46.55;;
61095;Laerm;20450;49.074;9.158;2023-11-22T11:19:50;43.96;42.35;46.18;;
61095;Laerm;20450;49.074;9.158;2023-11-22T11:22:17;43.81;42.03;46.57;;
61095;Laerm;20450;49.074;9.158;2023-11-22T11:25:02;44.02;42.16;49.84;;
61095;Laerm;20450;49.074;9.158;2023-11-22T11:27:34;44.15;42.29;48.54;;
61095;Laerm;20450;49.074;9.158;2023-11-22T11:30:02;43.87;41.96;46.57;;
61095;Laerm;20450;49.074;9.158;2023-11-22T11:32:51;43.99;42.35;47.44;;
61095;Laerm;20450;49.074;9.158;2023-11-22T11:35:37;43.85;42.22;46.18;;
61095;Laerm;20450;49.074;9.158;2023-11-22T11:38:05;43.88;42.16;46.55;;
61095;Laerm;20450;49.074;9.158;2023-11-22T11:40:34;43.89;42.22;45.42;;
61095;Laerm;20450;49.074;9.158;2023-11-22T11:43:04;44.20;42.09;49.84;;
61095;Laerm;20450;49.074;9.158;2023-11-22T11:45:37;43.93;42.29;45.60;;
61095;Laerm;20450;49.074;9.158;2023-11-22T11:48:06;43.90;42.29;49.70;;
61095;Laerm;20450;49.074;9.158;2023-11-22T11:50:33;44.14;42.16;47.63;;
61095;Laerm;20450;49.074;9.158;2023-11-22T11:53:00;44.05;42.03;48.42;;
61095;Laerm;20450;49.074;9.158;2023-11-22T11:55:27;43.99;41.75;51.19;;
61095;Laerm;20450;49.074;9.158;2023-11-22T11:57:55;43.88;41.96;48.70;;
61095;Laerm;20450;49.074;9.158;2023-11-22T12:00:23;43.94;42.16;47.34;;
61095;Laerm;20450;49.074;9.158;2023-11-22T12:02:51;44.27;42.53;50.24;;
61095;Laerm;20450;49.074;9.158;2023-11-22T12:05:21;44.09;42.29;46.28;;
61095;Laerm;20450;49.074;9.158;2023-11-22T12:07:48;44.09;42.59;51.24;;
61095;Laerm;20450;49.074;9.158;2023-11-22T12:10:16;43.99;42.29;45.97;;
61095;Laerm;20450;49.074;9.158;2023-11-22T12:12:45;44.09;42.47;47.18;;
61095;Laerm;20450;49.074;9.158;2023-11-22T12:15:12;44.27;42.76;48.60;;
61095;Laerm;20450;49.074;9.158;2023-11-22T12:17:42;44.57;42.47;48.61;;
61095;Laerm;20450;49.074;9.158;2023-11-22T12:20:12;44.13;42.09;49.12;;
61095;Laerm;20450;49.074;9.158;2023-11-22T12:22:42;43.98;42.03;47.18;;
61095;Laerm;20450;49.074;9.158;2023-11-22T12:25:10;43.77;42.29;46.84;;
61095;Laerm;20450;49.074;9.158;2023-11-22T12:27:41;43.89;42.16;47.30;;
61095;Laerm;20450;49.074;9.158;2023-11-22T12:30:09;44.00;42.03;48.70;;
61095;Laerm;20450;49.074;9.158;2023-11-22T12:32:39;44.12;42.47;47.68;;
61095;Laerm;20450;49.074;9.158;2023-11-22T12:35:07;44.01;42.29;46.55;;
61095;Laerm;20450;49.074;9.158;2023-11-22T12:37:34;44.11;42.47;45.80;;
61095;Laerm;20450;49.074;9.158;2023-11-22T12:40:12;44.15;42.47;46.66;;
61095;Laerm;20450;49.074;9.158;2023-11-22T12:42:50;44.30;42.76;48.46;;
61095;Laerm;20450;49.074;9.158;2023-11-22T12:45:22;44.07;42.53;49.30;;
61095;Laerm;20450;49.074;9.158;2023-11-22T12:47:49;44.11;42.35;46.71;;
61095;Laerm;20450;49.074;9.158;2023-11-22T12:50:33;44.09;42.16;52.11;;
61095;Laerm;20450;49.074;9.158;2023-11-22T12:53:09;44.09;42.09;47.90;;
61095;Laerm;20450;49.074;9.158;2023-11-22T12:55:42;44.70;42.22;56.25;;
61095;Laerm;20450;49.074;9.158;2023-11-22T12:58:09;43.93;42.41;45.57;;
61095;Laerm;20450;49.074;9.158;2023-11-22T13:00:36;43.96;42.09;49.00;;
61095;Laerm;20450;49.074;9.158;2023-11-22T13:03:05;44.04;42.16;51.66;;
61095;Laerm;20450;49.074;9.158;2023-11-22T13:05:33;43.83;42.41;47.70;;
61095;Laerm;20450;49.074;9.158;2023-11-22T13:08:00;44.28;42.47;54.92;;
61095;Laerm;20450;49.074;9.158;2023-11-22T13:10:29;44.14;42.64;53.27;;
61095;Laerm;20450;49.074;9.158;2023-11-22T13:12:58;44.01;42.59;49.52;;
61095;Laerm;20450;49.074;9.158;2023-11-22T13:15:26;43.84;42.29;45.86;;
61095;Laerm;20450;49.074;9.158;2023-11-22T13:17:54;44.09;42.35;46.35;;
61095;Laerm;20450;49.074;9.158;2023-11-22T13:20:23;44.96;42.47;55.36;;
61095;Laerm;20450;49.074;9.158;2023-11-22T13:22:50;43.97;42.41;45.54;;
61095;Laerm;20450;49.074;9.158;2023-11-22T13:25:18;44.21;42.35;48.99;;
61095;Laerm;20450;49.074;9.158;2023-11-22T13:27:46;44.01;42.35;46.55;;
61095;Laerm;20450;49.074;9.158;2023-11-22T13:30:18;44.03;42.53;46.69;;
61095;Laerm;20450;49.074;9.158;2023-11-22T13:32:46;44.07;42.41;48.13;;
61095;Laerm;20450;49.074;9.158;2023-11-22T13:35:13;44.18;42.71;47.20;;
61095;Laerm;20450;49.074;9.158;2023-11-22T13:37:41;43.98;42.41;47.67;;
61095;Laerm;20450;49.074;9.158;2023-11-22T13:40:10;44.11;42.16;49.46;;
61095;Laerm;20450;49.074;9.158;2023-11-22T13:42:38;44.13;42.47;46.64;;
61095;Laerm;20450;49.074;9.158;2023-11-22T13:45:06;44.14;42.41;51.43;;
61095;Laerm;20450;49.074;9.158;2023-11-22T13:47:35;44.01;42.09;47.30;;
61095;Laerm;20450;49.074;9.158;2023-11-22T13:50:02;44.31;42.65;48.88;;
61095;Laerm;20450;49.074;9.158;2023-11-22T13:52:29;43.99;42.16;48.73;;
61095;Laerm;20450;49.074;9.158;2023-11-22T13:54:56;43.81;41.96;45.54;;